Time;durP1;ratioP1;P1;durP2;ratioP2;P2;SDS_P1;SDS_P2;PMS_P1;PMS_P2;Temp;Humidity;BMP_temperature;BMP_pressure;BME280_temperature;BME280_humidity;BME280_pressure;Samples;Min_cycle;Max_cycle;Signal;HPM_P1;HPM_P2
2022/07/09 00:01:41;;;;;;;2.10;1.70;;;;;;;;;;5055875;28;20577;-82
2022/07/09 00:04:08;;;;;;;3.17;1.87;;;;;;;;;;5053914;28;20266;-83
2022/07/09 00:06:35;;;;;;;2.67;1.87;;;;;;;;;;5054642;28;20207;-83
2022/07/09 00:09:02;;;;;;;1.87;1.77;;;;;;;;;;5053702;28;20237;-83
2022/07/09 00:11:30;;;;;;;2.70;1.90;;;;;;;;;;5054546;28;20217;-83
2022/07/09 00:13:57;;;;;;;2.30;1.77;;;;;;;;;;5053793;28;20237;-84
2022/07/09 00:16:24;;;;;;;2.10;1.80;;;;;;;;;;5055032;28;20666;-84
2022/07/09 00:18:51;;;;;;;5.50;1.80;;;;;;;;;;5054489;28;20234;-84
2022/07/09 00:21:18;;;;;;;2.67;1.60;;;;;;;;;;5054310;28;20206;-84
2022/07/09 00:23:45;;;;;;;2.27;2.07;;;;;;;;;;5053447;28;20241;-84
2022/07/09 00:26:13;;;;;;;2.37;2.17;;;;;;;;;;5054246;28;20210;-84
2022/07/09 00:28:41;;;;;;;2.57;1.73;;;;;;;;;;5053816;28;20245;-84
2022/07/09 00:31:09;;;;;;;7.80;1.80;;;;;;;;;;5054007;28;20206;-83
2022/07/09 00:33:36;;;;;;;1.80;1.70;;;;;;;;;;5053681;28;20647;-84
2022/07/09 00:36:03;;;;;;;1.53;1.43;;;;;;;;;;5053926;28;20558;-84
2022/07/09 00:38:30;;;;;;;2.87;1.50;;;;;;;;;;5053432;28;20283;-84
2022/07/09 00:40:57;;;;;;;1.97;1.87;;;;;;;;;;5053859;28;20556;-84
2022/07/09 00:43:24;;;;;;;3.00;1.70;;;;;;;;;;5053186;28;20237;-84
2022/07/09 00:45:53;;;;;;;3.20;1.83;;;;;;;;;;5053840;28;20657;-84
2022/07/09 00:48:20;;;;;;;2.30;2.00;;;;;;;;;;5053239;28;20717;-84
2022/07/09 00:50:47;;;;;;;3.37;1.90;;;;;;;;;;5053461;28;20292;-84
2022/07/09 00:53:15;;;;;;;1.90;1.73;;;;;;;;;;5053265;28;20246;-83
2022/07/09 00:55:44;;;;;;;4.03;2.10;;;;;;;;;;5053657;28;20662;-84
2022/07/09 00:58:12;;;;;;;3.13;2.00;;;;;;;;;;5057172;28;20217;-84
2022/07/09 01:00:39;;;;;;;4.00;1.97;;;;;;;;;;5053480;28;20666;-83
2022/07/09 01:03:07;;;;;;;2.03;1.93;;;;;;;;;;5071769;28;20221;-83
2022/07/09 01:05:36;;;;;;;1.80;1.70;;;;;;;;;;5058764;28;20640;-84
2022/07/09 01:08:04;;;;;;;4.73;2.00;;;;;;;;;;5058951;28;20630;-84
2022/07/09 01:10:31;;;;;;;2.13;1.93;;;;;;;;;;5073336;28;20693;-83
2022/07/09 01:12:58;;;;;;;2.10;1.90;;;;;;;;;;5056665;28;20206;-83
2022/07/09 01:15:25;;;;;;;1.73;1.60;;;;;;;;;;5053378;28;20217;-83
2022/07/09 01:17:52;;;;;;;2.30;2.10;;;;;;;;;;5053291;28;20575;-83
2022/07/09 01:20:23;;;;;;;2.40;1.80;;;;;;;;;;5052603;28;20265;-84
2022/07/09 01:22:51;;;;;;;2.20;1.80;;;;;;;;;;5053364;28;20282;-83
2022/07/09 01:25:18;;;;;;;2.13;1.53;;;;;;;;;;5069783;28;20239;-84
2022/07/09 01:27:45;;;;;;;2.40;2.00;;;;;;;;;;5073165;28;20210;-83
2022/07/09 01:30:12;;;;;;;4.73;2.00;;;;;;;;;;5072558;28;20237;-83
2022/07/09 01:32:39;;;;;;;3.40;1.87;;;;;;;;;;5073072;28;20669;-83
2022/07/09 01:35:07;;;;;;;1.90;1.80;;;;;;;;;;5072302;28;20236;-83
2022/07/09 01:37:35;;;;;;;2.30;2.10;;;;;;;;;;5073028;28;20202;-83
2022/07/09 01:40:02;;;;;;;3.10;2.00;;;;;;;;;;5072407;28;20245;-83
2022/07/09 01:42:29;;;;;;;1.97;1.80;;;;;;;;;;5076332;28;20232;-83
2022/07/09 01:44:56;;;;;;;2.60;2.07;;;;;;;;;;5075873;28;20733;-83
2022/07/09 01:47:23;;;;;;;2.10;2.00;;;;;;;;;;5076280;28;20205;-83
2022/07/09 01:49:51;;;;;;;3.00;2.10;;;;;;;;;;5072491;28;20237;-83
2022/07/09 01:52:18;;;;;;;2.37;2.03;;;;;;;;;;5072578;28;20679;-84
2022/07/09 01:54:46;;;;;;;2.57;2.27;;;;;;;;;;5071899;28;20649;-84
2022/07/09 01:57:13;;;;;;;2.50;2.17;;;;;;;;;;5072267;28;20208;-84
2022/07/09 01:59:40;;;;;;;2.30;2.10;;;;;;;;;;5069584;28;20244;-84
2022/07/09 02:02:07;;;;;;;3.40;1.90;;;;;;;;;;5052655;28;20210;-84
2022/07/09 02:04:35;;;;;;;2.00;1.90;;;;;;;;;;5051270;28;20710;-84
2022/07/09 02:07:02;;;;;;;1.87;1.70;;;;;;;;;;5052406;28;20266;-84
2022/07/09 02:09:29;;;;;;;2.23;2.10;;;;;;;;;;5052124;28;20238;-83
2022/07/09 02:11:57;;;;;;;2.17;2.07;;;;;;;;;;5053025;28;20221;-85
2022/07/09 02:14:24;;;;;;;3.90;1.87;;;;;;;;;;5052603;28;20356;-83
2022/07/09 02:16:51;;;;;;;2.63;2.00;;;;;;;;;;5053060;28;20638;-83
2022/07/09 02:19:18;;;;;;;3.50;2.20;;;;;;;;;;5051378;28;20253;-83
2022/07/09 02:21:45;;;;;;;2.10;2.00;;;;;;;;;;5052280;28;20229;-82
2022/07/09 02:24:12;;;;;;;2.40;2.20;;;;;;;;;;5051321;28;20241;-82
2022/07/09 02:26:40;;;;;;;3.30;2.00;;;;;;;;;;5051180;28;20701;-83
2022/07/09 02:29:08;;;;;;;3.60;2.10;;;;;;;;;;5050920;28;20718;-84
2022/07/09 02:31:35;;;;;;;5.23;2.10;;;;;;;;;;5051997;28;20213;-82
2022/07/09 02:34:02;;;;;;;2.57;2.10;;;;;;;;;;5051060;28;20237;-82
2022/07/09 02:36:29;;;;;;;4.40;2.27;;;;;;;;;;5051913;28;20213;-83
2022/07/09 02:38:56;;;;;;;2.33;2.07;;;;;;;;;;5051343;28;20244;-84
2022/07/09 02:41:23;;;;;;;2.53;1.77;;;;;;;;;;5051919;28;20213;-83
2022/07/09 02:43:50;;;;;;;1.90;1.80;;;;;;;;;;5051427;28;20242;-83
2022/07/09 02:46:19;;;;;;;2.13;1.93;;;;;;;;;;5051622;28;20217;-83
2022/07/09 02:48:46;;;;;;;2.17;2.00;;;;;;;;;;5051329;28;20230;-83
2022/07/09 02:51:13;;;;;;;2.17;1.90;;;;;;;;;;5052031;28;20206;-84
2022/07/09 02:53:40;;;;;;;2.43;2.23;;;;;;;;;;5051635;28;20229;-83
2022/07/09 02:56:07;;;;;;;2.20;1.90;;;;;;;;;;5052668;28;20217;-83
2022/07/09 02:58:34;;;;;;;3.63;2.00;;;;;;;;;;5051801;28;20728;-83
2022/07/09 03:01:05;;;;;;;2.53;2.20;;;;;;;;;;5065438;28;20677;-84
2022/07/09 03:03:35;;;;;;;2.60;2.13;;;;;;;;;;5071597;28;20256;-84
2022/07/09 03:06:02;;;;;;;2.50;2.30;;;;;;;;;;5072043;28;20216;-83
2022/07/09 03:08:29;;;;;;;2.90;2.00;;;;;;;;;;5071647;28;20256;-84
2022/07/09 03:10:56;;;;;;;2.40;2.20;;;;;;;;;;5071804;28;20205;-83
2022/07/09 03:13:24;;;;;;;2.27;2.07;;;;;;;;;;5071522;28;20225;-84
2022/07/09 03:15:51;;;;;;;2.00;1.80;;;;;;;;;;5075631;28;20201;-83
2022/07/09 03:20:50;;;;;;;2.10;1.90;;;;;;;;;;5043210;28;20609;-86
2022/07/09 03:23:17;;;;;;;2.27;2.07;;;;;;;;;;5056074;28;20261;-85
2022/07/09 03:25:44;;;;;;;2.63;2.20;;;;;;;;;;5056306;28;20205;-84
2022/07/09 03:28:11;;;;;;;2.80;1.90;;;;;;;;;;5055489;28;20241;-84
2022/07/09 03:30:38;;;;;;;2.70;1.97;;;;;;;;;;5056195;28;20314;-84
2022/07/09 03:33:06;;;;;;;2.47;2.30;;;;;;;;;;5055087;28;20210;-84
2022/07/09 03:35:33;;;;;;;2.83;2.17;;;;;;;;;;5055891;28;20635;-84
2022/07/09 03:38:01;;;;;;;2.60;2.13;;;;;;;;;;5055117;28;20209;-84
2022/07/09 03:40:29;;;;;;;2.40;2.20;;;;;;;;;;5055350;28;20226;-84
2022/07/09 03:42:56;;;;;;;2.97;2.40;;;;;;;;;;5055218;28;20206;-83
2022/07/09 03:45:23;;;;;;;2.00;1.90;;;;;;;;;;5055061;28;20229;-84
2022/07/09 03:47:50;;;;;;;1.90;1.80;;;;;;;;;;5055708;28;20213;-84
2022/07/09 03:50:17;;;;;;;2.30;2.10;;;;;;;;;;5055202;28;20233;-84
2022/07/09 03:52:45;;;;;;;2.03;1.90;;;;;;;;;;5055557;28;20245;-84
2022/07/09 03:55:13;;;;;;;2.57;2.03;;;;;;;;;;5055033;28;20234;-84
2022/07/09 03:57:40;;;;;;;2.87;2.60;;;;;;;;;;5055537;28;20209;-84
2022/07/09 04:00:08;;;;;;;3.17;2.10;;;;;;;;;;5054603;28;20631;-84
2022/07/09 04:02:35;;;;;;;2.10;2.00;;;;;;;;;;5054981;28;20209;-84
2022/07/09 04:05:02;;;;;;;2.00;1.90;;;;;;;;;;5054163;28;20234;-84
2022/07/09 04:07:29;;;;;;;2.27;2.07;;;;;;;;;;5054871;28;20235;-84
2022/07/09 04:09:56;;;;;;;3.90;2.37;;;;;;;;;;5054225;28;20241;-84
2022/07/09 04:12:25;;;;;;;2.57;2.03;;;;;;;;;;5055087;28;20206;-84
2022/07/09 04:14:52;;;;;;;2.30;2.10;;;;;;;;;;5054165;28;20226;-84
2022/07/09 04:17:19;;;;;;;3.10;2.40;;;;;;;;;;5055015;28;20608;-84
2022/07/09 04:19:46;;;;;;;4.17;2.07;;;;;;;;;;5054062;28;20238;-84
2022/07/09 04:22:13;;;;;;;2.60;2.03;;;;;;;;;;5054807;28;20206;-84
2022/07/09 04:24:40;;;;;;;2.60;2.40;;;;;;;;;;5054026;28;20321;-84
2022/07/09 04:27:07;;;;;;;3.73;2.33;;;;;;;;;;5053685;28;20198;-84
2022/07/09 04:29:35;;;;;;;3.57;2.60;;;;;;;;;;5054122;28;20356;-84
2022/07/09 04:32:02;;;;;;;3.17;2.23;;;;;;;;;;5054587;28;20646;-83
2022/07/09 04:34:30;;;;;;;3.47;2.10;;;;;;;;;;5054431;28;20234;-84
2022/07/09 04:36:57;;;;;;;2.47;2.27;;;;;;;;;;5054925;28;20221;-84
2022/07/09 04:39:24;;;;;;;6.27;2.40;;;;;;;;;;5054556;28;20252;-84
2022/07/09 04:41:51;;;;;;;2.60;2.40;;;;;;;;;;5054854;28;20197;-84
2022/07/09 04:44:19;;;;;;;3.77;2.70;;;;;;;;;;5053911;28;20254;-84
2022/07/09 04:46:47;;;;;;;5.50;2.30;;;;;;;;;;5054549;28;20210;-84
2022/07/09 04:49:14;;;;;;;3.63;2.50;;;;;;;;;;5053925;28;20241;-84
2022/07/09 04:51:41;;;;;;;2.23;2.03;;;;;;;;;;5054847;28;20206;-84
2022/07/09 04:54:08;;;;;;;2.43;2.30;;;;;;;;;;5064922;28;20221;-84
2022/07/09 04:56:35;;;;;;;2.47;2.27;;;;;;;;;;5056696;28;20700;-84
2022/07/09 04:59:03;;;;;;;2.57;2.33;;;;;;;;;;5055597;28;20277;-85
2022/07/09 05:01:30;;;;;;;2.60;2.40;;;;;;;;;;5054824;28;20234;-85
2022/07/09 05:03:58;;;;;;;2.17;1.97;;;;;;;;;;5054937;28;20238;-85
2022/07/09 05:06:25;;;;;;;3.47;2.53;;;;;;;;;;5055225;28;20233;-86
2022/07/09 05:08:53;;;;;;;2.63;2.43;;;;;;;;;;5054031;28;20238;-85
2022/07/09 05:11:20;;;;;;;3.03;2.80;;;;;;;;;;5054635;28;20217;-84
2022/07/09 05:13:47;;;;;;;2.60;2.40;;;;;;;;;;5053895;28;20716;-86
2022/07/09 05:16:14;;;;;;;2.80;2.37;;;;;;;;;;5054297;28;20624;-85
2022/07/09 05:18:41;;;;;;;2.47;2.23;;;;;;;;;;5054240;28;20265;-85
2022/07/09 05:21:10;;;;;;;5.20;2.20;;;;;;;;;;5053552;28;20202;-85
2022/07/09 05:23:37;;;;;;;3.57;2.60;;;;;;;;;;5053222;28;20244;-85
2022/07/09 05:26:04;;;;;;;2.27;2.07;;;;;;;;;;5053565;28;20566;-86
2022/07/09 05:28:31;;;;;;;2.40;2.20;;;;;;;;;;5053251;28;20237;-85
2022/07/09 05:30:58;;;;;;;3.67;2.60;;;;;;;;;;5053927;28;20210;-85
2022/07/09 05:33:25;;;;;;;3.73;2.20;;;;;;;;;;5069010;28;20230;-86
2022/07/09 05:35:53;;;;;;;3.57;2.40;;;;;;;;;;5054118;28;20206;-85
2022/07/09 05:38:21;;;;;;;3.13;2.27;;;;;;;;;;5052084;28;20762;-85
2022/07/09 05:40:49;;;;;;;3.83;2.70;;;;;;;;;;5053940;28;20241;-85
2022/07/09 05:43:16;;;;;;;2.70;2.30;;;;;;;;;;5052978;28;20743;-86
2022/07/09 05:45:43;;;;;;;2.40;2.20;;;;;;;;;;5053360;28;20256;-85
2022/07/09 05:48:11;;;;;;;2.50;2.30;;;;;;;;;;5052759;28;20205;-85
2022/07/09 05:50:38;;;;;;;2.00;1.70;;;;;;;;;;5053393;28;20229;-85
2022/07/09 05:53:05;;;;;;;2.30;2.10;;;;;;;;;;5052704;28;20605;-85
2022/07/09 05:55:33;;;;;;;2.97;2.67;;;;;;;;;;5052822;28;20662;-85
2022/07/09 05:58:00;;;;;;;4.27;2.20;;;;;;;;;;5052819;28;20210;-85
2022/07/09 06:00:27;;;;;;;2.60;2.40;;;;;;;;;;5053215;28;20321;-85
2022/07/09 06:02:55;;;;;;;2.23;1.80;;;;;;;;;;5052288;28;20205;-85
2022/07/09 06:05:22;;;;;;;2.77;2.10;;;;;;;;;;5056661;28;20587;-82
2022/07/09 06:07:49;;;;;;;3.70;2.20;;;;;;;;;;5063309;28;20208;-82
2022/07/09 06:10:17;;;;;;;3.83;2.20;;;;;;;;;;5063877;28;20709;-82
2022/07/09 06:12:45;;;;;;;2.50;2.13;;;;;;;;;;5062762;28;20209;-81
2022/07/09 06:15:12;;;;;;;3.63;2.13;;;;;;;;;;5061426;28;20244;-82
2022/07/09 06:17:40;;;;;;;2.03;1.80;;;;;;;;;;5063111;28;20210;-82
2022/07/09 06:20:07;;;;;;;2.73;2.13;;;;;;;;;;5063027;28;20241;-82
2022/07/09 06:22:35;;;;;;;3.00;2.20;;;;;;;;;;5062212;28;20576;-82
2022/07/09 06:25:02;;;;;;;5.33;2.10;;;;;;;;;;5061727;28;20242;-82
2022/07/09 06:27:29;;;;;;;5.13;2.20;;;;;;;;;;5061363;28;20232;-82
2022/07/09 06:29:57;;;;;;;2.70;2.50;;;;;;;;;;5061907;28;20241;-82
2022/07/09 06:32:24;;;;;;;5.93;2.23;;;;;;;;;;5060168;28;20210;-82
2022/07/09 06:34:51;;;;;;;2.80;2.60;;;;;;;;;;5058399;28;20226;-82
2022/07/09 06:37:18;;;;;;;4.87;2.50;;;;;;;;;;5056157;28;20210;-83
2022/07/09 06:39:45;;;;;;;4.80;2.50;;;;;;;;;;5053131;28;20245;-83
2022/07/09 06:42:13;;;;;;;2.70;2.40;;;;;;;;;;5053417;28;20209;-83
2022/07/09 06:44:40;;;;;;;2.15;2.05;;;;;;;;;;5053271;28;20733;-83
2022/07/09 06:47:08;;;;;;;3.30;2.33;;;;;;;;;;5053699;28;20213;-83
2022/07/09 06:49:36;;;;;;;4.10;2.80;;;;;;;;;;5055875;28;20242;-82
2022/07/09 06:52:03;;;;;;;7.22;2.38;;;;;;;;;;5061510;28;20209;-82
2022/07/09 06:54:30;;;;;;;5.13;2.45;;;;;;;;;;5060970;28;20244;-82
2022/07/09 06:56:57;;;;;;;3.83;2.10;;;;;;;;;;5058407;28;20702;-82
2022/07/09 06:59:25;;;;;;;3.45;2.22;;;;;;;;;;5057889;28;20592;-82
2022/07/09 07:01:52;;;;;;;3.35;1.90;;;;;;;;;;5057220;28;20214;-83
2022/07/09 07:04:21;;;;;;;3.60;1.80;;;;;;;;;;5057658;28;20244;-83
2022/07/09 07:06:48;;;;;;;4.20;2.13;;;;;;;;;;5059402;28;20573;-82
2022/07/09 07:09:18;;;;;;;2.58;1.88;;;;;;;;;;5057210;28;20238;-82
2022/07/09 07:11:45;;;;;;;3.70;1.90;;;;;;;;;;5058999;28;20206;-82
2022/07/09 07:14:12;;;;;;;4.88;2.22;;;;;;;;;;5057061;28;20257;-82
2022/07/09 07:16:39;;;;;;;4.22;2.22;;;;;;;;;;5059116;28;20206;-82
2022/07/09 07:19:06;;;;;;;5.93;1.85;;;;;;;;;;5055526;28;20265;-83
2022/07/09 07:21:34;;;;;;;1.90;1.80;;;;;;;;;;5054790;28;20210;-83
2022/07/09 07:24:01;;;;;;;2.22;2.05;;;;;;;;;;5054654;28;20587;-83
2022/07/09 07:26:28;;;;;;;2.30;1.63;;;;;;;;;;5054659;28;20254;-83
2022/07/09 07:28:55;;;;;;;1.65;1.55;;;;;;;;;;5058278;28;20241;-83
2022/07/09 07:31:23;;;;;;;3.75;1.88;;;;;;;;;;5056487;28;20210;-83
2022/07/09 07:33:50;;;;;;;4.78;1.98;;;;;;;;;;5057145;28;20260;-83
2022/07/09 07:36:17;;;;;;;4.53;2.13;;;;;;;;;;5055518;28;20237;-83
2022/07/09 07:38:45;;;;;;;3.05;2.03;;;;;;;;;;5052865;28;20234;-83
2022/07/09 07:41:13;;;;;;;3.05;1.92;;;;;;;;;;5052860;28;20213;-84
2022/07/09 07:43:40;;;;;;;4.28;1.98;;;;;;;;;;5051923;28;20240;-83
2022/07/09 07:46:07;;;;;;;2.55;2.13;;;;;;;;;;5052134;28;20630;-83
2022/07/09 07:48:35;;;;;;;3.60;2.08;;;;;;;;;;5052708;28;20257;-84
2022/07/09 07:51:02;;;;;;;4.00;1.90;;;;;;;;;;5052047;28;20587;-84
2022/07/09 07:53:31;;;;;;;3.90;2.75;;;;;;;;;;5052046;28;20651;-84
2022/07/09 07:56:00;;;;;;;3.08;2.40;;;;;;;;;;5052370;28;20205;-84
2022/07/09 07:58:27;;;;;;;4.60;2.50;;;;;;;;;;5052275;28;20230;-83
2022/07/09 08:00:54;;;;;;;6.38;2.17;;;;;;;;;;5052828;28;20215;-84
2022/07/09 08:03:21;;;;;;;4.70;2.60;;;;;;;;;;5056560;28;20230;-83
2022/07/09 08:05:48;;;;;;;4.13;2.25;;;;;;;;;;5056276;28;20225;-83
2022/07/09 08:08:15;;;;;;;3.60;2.17;;;;;;;;;;5055859;28;20238;-83
2022/07/09 08:10:42;;;;;;;3.22;1.90;;;;;;;;;;5055991;28;20237;-83
2022/07/09 08:13:11;;;;;;;6.03;2.53;;;;;;;;;;5055318;28;20618;-83
2022/07/09 08:15:38;;;;;;;2.42;1.73;;;;;;;;;;5056349;28;20794;-83
2022/07/09 08:18:08;;;;;;;3.80;1.95;;;;;;;;;;5058000;28;20263;-83
2022/07/09 08:20:36;;;;;;;6.75;2.28;;;;;;;;;;5060570;28;20288;-83
2022/07/09 08:23:03;;;;;;;3.38;2.08;;;;;;;;;;5057510;28;20202;-83
2022/07/09 08:25:30;;;;;;;2.45;1.92;;;;;;;;;;5057700;28;20229;-83
2022/07/09 08:27:57;;;;;;;2.20;1.60;;;;;;;;;;5055655;28;20213;-83
2022/07/09 08:30:26;;;;;;;4.25;2.00;;;;;;;;;;5055875;28;20233;-83
2022/07/09 08:32:53;;;;;;;5.75;2.30;;;;;;;;;;5055051;28;20209;-83
2022/07/09 08:35:20;;;;;;;3.58;1.90;;;;;;;;;;5056418;28;20685;-82
2022/07/09 08:37:47;;;;;;;4.07;2.03;;;;;;;;;;5065360;28;20213;-82
2022/07/09 08:40:14;;;;;;;4.03;2.15;;;;;;;;;;5056374;28;20241;-83
2022/07/09 08:42:41;;;;;;;4.15;2.50;;;;;;;;;;5056372;28;20666;-83
2022/07/09 08:45:09;;;;;;;4.50;1.88;;;;;;;;;;5054400;28;20236;-83
2022/07/09 08:47:38;;;;;;;3.58;2.00;;;;;;;;;;5054943;28;20210;-84
2022/07/09 08:50:05;;;;;;;3.10;2.20;;;;;;;;;;5054717;28;20238;-84
2022/07/09 08:52:33;;;;;;;4.22;2.00;;;;;;;;;;5055041;28;20213;-84
2022/07/09 08:55:00;;;;;;;2.55;1.98;;;;;;;;;;5054456;28;20717;-83
2022/07/09 08:57:27;;;;;;;4.65;2.10;;;;;;;;;;5054537;28;20210;-84
2022/07/09 08:59:54;;;;;;;3.78;1.88;;;;;;;;;;5054565;28;20295;-84
2022/07/09 09:02:21;;;;;;;2.53;2.25;;;;;;;;;;5059193;28;20723;-83
2022/07/09 09:04:49;;;;;;;3.25;1.95;;;;;;;;;;5053880;28;20229;-83
2022/07/09 09:07:17;;;;;;;3.40;2.13;;;;;;;;;;5054206;28;20213;-83
2022/07/09 09:09:44;;;;;;;5.68;2.30;;;;;;;;;;5053717;28;20240;-84
2022/07/09 09:12:11;;;;;;;3.90;1.67;;;;;;;;;;5053475;28;20666;-83
2022/07/09 09:14:39;;;;;;;4.03;1.90;;;;;;;;;;5053414;28;20303;-84
2022/07/09 09:17:09;;;;;;;2.13;1.88;;;;;;;;;;5054724;28;20205;-83
2022/07/09 09:19:36;;;;;;;4.80;1.88;;;;;;;;;;5053983;28;20418;-83
2022/07/09 09:22:04;;;;;;;2.38;1.92;;;;;;;;;;5053159;28;20206;-83
2022/07/09 09:24:31;;;;;;;4.50;1.98;;;;;;;;;;5052890;28;20237;-83
2022/07/09 09:26:59;;;;;;;4.78;1.85;;;;;;;;;;5053166;28;20697;-83
2022/07/09 09:29:27;;;;;;;3.72;1.88;;;;;;;;;;5052909;28;20237;-83
2022/07/09 09:31:54;;;;;;;2.10;2.00;;;;;;;;;;5053659;28;20253;-83
2022/07/09 09:34:22;;;;;;;5.13;2.47;;;;;;;;;;5053299;28;20260;-82
2022/07/09 09:36:51;;;;;;;3.10;2.78;;;;;;;;;;5053155;28;20206;-83
2022/07/09 09:39:20;;;;;;;3.75;2.35;;;;;;;;;;5052646;28;20594;-83
2022/07/09 09:41:48;;;;;;;3.85;2.50;;;;;;;;;;5053041;28;20217;-83
2022/07/09 09:44:16;;;;;;;4.38;2.30;;;;;;;;;;5052680;28;20237;-83
2022/07/09 09:46:44;;;;;;;5.57;2.60;;;;;;;;;;5052903;28;20229;-83
2022/07/09 09:49:14;;;;;;;2.85;2.55;;;;;;;;;;5052504;28;20240;-83
2022/07/09 09:51:45;;;;;;;4.78;2.38;;;;;;;;;;5053286;28;20210;-83
2022/07/09 09:54:13;;;;;;;2.75;2.38;;;;;;;;;;5052557;28;20316;-83
2022/07/09 09:56:42;;;;;;;4.70;2.17;;;;;;;;;;5053237;28;20202;-83
2022/07/09 09:59:09;;;;;;;5.35;2.38;;;;;;;;;;5052501;28;20241;-83
2022/07/09 10:01:36;;;;;;;2.63;1.90;;;;;;;;;;5052807;28;20210;-83
2022/07/09 10:04:03;;;;;;;2.83;2.33;;;;;;;;;;5052203;28;20230;-84
2022/07/09 10:06:30;;;;;;;3.92;2.25;;;;;;;;;;5052596;28;20225;-83
2022/07/09 10:08:57;;;;;;;3.42;2.60;;;;;;;;;;5051989;28;20443;-84
2022/07/09 10:11:24;;;;;;;4.53;2.10;;;;;;;;;;5052788;28;20213;-84
2022/07/09 10:13:54;;;;;;;5.07;2.13;;;;;;;;;;5052350;28;20291;-84
2022/07/09 10:16:33;;;;;;;3.40;2.00;;;;;;;;;;5052930;28;20213;-82
2022/07/09 10:19:00;;;;;;;3.50;2.00;;;;;;;;;;5052506;28;20234;-82
2022/07/09 10:21:34;;;;;;;4.78;1.95;;;;;;;;;;5052868;28;20212;-83
2022/07/09 10:24:01;;;;;;;4.53;1.83;;;;;;;;;;5051455;28;20312;-82
2022/07/09 10:26:37;;;;;;;2.47;1.98;;;;;;;;;;5053423;28;20226;-84
2022/07/09 10:29:18;;;;;;;2.15;1.95;;;;;;;;;;5052314;28;20265;-82
2022/07/09 10:31:45;;;;;;;2.50;1.85;;;;;;;;;;5052935;28;20217;-82
2022/07/09 10:34:17;;;;;;;2.78;1.73;;;;;;;;;;5052140;28;20530;-84
2022/07/09 10:36:57;;;;;;;3.20;2.00;;;;;;;;;;5053096;28;20392;-84
2022/07/09 10:39:24;;;;;;;3.13;1.60;;;;;;;;;;5052276;28;20242;-84
2022/07/09 10:41:59;;;;;;;1.83;1.45;;;;;;;;;;5053093;28;20202;-84
2022/07/09 10:44:29;;;;;;;2.35;1.65;;;;;;;;;;5068665;28;20233;-82
2022/07/09 10:46:59;;;;;;;1.55;1.45;;;;;;;;;;5067005;28;20245;-81
2022/07/09 10:49:27;;;;;;;1.73;1.63;;;;;;;;;;5054749;28;20233;-81
2022/07/09 10:51:57;;;;;;;2.65;1.80;;;;;;;;;;5052809;28;20602;-81
2022/07/09 10:54:24;;;;;;;2.20;1.48;;;;;;;;;;5052036;28;20265;-81
2022/07/09 10:56:51;;;;;;;1.70;1.60;;;;;;;;;;5052645;28;20276;-84
2022/07/09 10:59:18;;;;;;;2.92;1.35;;;;;;;;;;5052609;28;20257;-82
2022/07/09 11:01:47;;;;;;;2.08;1.33;;;;;;;;;;5044855;28;20198;-82
2022/07/09 11:04:24;;;;;;;2.00;1.48;;;;;;;;;;5043977;28;20238;-82
2022/07/09 11:06:51;;;;;;;1.58;1.42;;;;;;;;;;5046130;28;20234;-83
2022/07/09 11:09:18;;;;;;;1.52;1.42;;;;;;;;;;5042170;28;20240;-83
2022/07/09 11:11:46;;;;;;;1.50;1.40;;;;;;;;;;5046838;28;20198;-81
2022/07/09 11:14:13;;;;;;;1.33;1.25;;;;;;;;;;5044053;28;20681;-82
2022/07/09 11:16:41;;;;;;;2.15;1.20;;;;;;;;;;5036159;28;20202;-85
2022/07/09 11:19:19;;;;;;;1.75;1.40;;;;;;;;;;5031998;28;20234;-84
2022/07/09 11:21:47;;;;;;;1.33;1.17;;;;;;;;;;5032285;28;20202;-85
2022/07/09 11:24:15;;;;;;;8.05;1.00;;;;;;;;;;5033648;28;20260;-83
2022/07/09 11:26:42;;;;;;;2.90;1.13;;;;;;;;;;5037900;28;20223;-84
2022/07/09 11:29:10;;;;;;;0.88;0.88;;;;;;;;;;5039591;28;20261;-83
2022/07/09 11:31:37;;;;;;;1.48;1.25;;;;;;;;;;5034657;28;20210;-82
2022/07/09 11:34:14;;;;;;;1.00;1.00;;;;;;;;;;5032590;28;20312;-83
2022/07/09 11:36:43;;;;;;;1.00;0.90;;;;;;;;;;5035835;28;20217;-83
2022/07/09 11:39:11;;;;;;;2.97;1.10;;;;;;;;;;5035460;28;20714;-82
2022/07/09 11:41:41;;;;;;;1.02;0.90;;;;;;;;;;5041878;28;20221;-83
2022/07/09 11:44:08;;;;;;;2.00;0.80;;;;;;;;;;5036520;28;20238;-83
2022/07/09 11:46:36;;;;;;;1.10;1.02;;;;;;;;;;5036356;28;20266;-84
2022/07/09 11:49:04;;;;;;;0.88;0.88;;;;;;;;;;5035495;28;20261;-82
2022/07/09 11:51:32;;;;;;;1.75;1.00;;;;;;;;;;5035048;28;20207;-82
2022/07/09 11:54:01;;;;;;;1.90;1.35;;;;;;;;;;5034443;28;20253;-83
2022/07/09 11:56:28;;;;;;;1.55;0.98;;;;;;;;;;5035242;28;20671;-83
2022/07/09 11:58:55;;;;;;;1.30;1.20;;;;;;;;;;5034838;28;20234;-83
2022/07/09 12:01:25;;;;;;;1.35;1.20;;;;;;;;;;5051238;28;20206;-84
2022/07/09 12:03:52;;;;;;;1.10;1.05;;;;;;;;;;5054204;28;20257;-83
2022/07/09 12:06:19;;;;;;;1.50;1.30;;;;;;;;;;5055024;28;20233;-83
2022/07/09 12:08:46;;;;;;;1.00;1.00;;;;;;;;;;5055923;28;20721;-83
2022/07/09 12:11:15;;;;;;;3.20;1.20;;;;;;;;;;5056112;28;20264;-83
2022/07/09 12:13:42;;;;;;;1.92;1.30;;;;;;;;;;5054336;28;20632;-84
2022/07/09 12:16:09;;;;;;;1.30;1.20;;;;;;;;;;5055079;28;20206;-83
2022/07/09 12:18:36;;;;;;;1.63;1.45;;;;;;;;;;5054161;28;20283;-84
2022/07/09 12:21:03;;;;;;;1.23;1.13;;;;;;;;;;5054582;28;20212;-84
2022/07/09 12:23:30;;;;;;;1.10;1.02;;;;;;;;;;5054126;28;20237;-85
2022/07/09 12:25:57;;;;;;;1.10;1.10;;;;;;;;;;5054684;28;20206;-84
2022/07/09 12:28:25;;;;;;;2.22;1.52;;;;;;;;;;5053792;28;20226;-84
2022/07/09 12:30:52;;;;;;;1.58;1.48;;;;;;;;;;5054716;28;20217;-84
2022/07/09 12:33:19;;;;;;;1.92;1.35;;;;;;;;;;5053751;28;20234;-84
2022/07/09 12:35:46;;;;;;;1.40;1.30;;;;;;;;;;5055116;28;20206;-85
2022/07/09 12:38:14;;;;;;;2.35;1.50;;;;;;;;;;5053606;28;20237;-84
2022/07/09 12:40:41;;;;;;;1.92;1.25;;;;;;;;;;5053912;28;20740;-85
2022/07/09 12:43:08;;;;;;;1.30;1.20;;;;;;;;;;5053513;28;20206;-85
2022/07/09 12:45:36;;;;;;;1.98;1.48;;;;;;;;;;5054222;28;20217;-85
2022/07/09 12:48:03;;;;;;;1.15;1.13;;;;;;;;;;5052935;28;20229;-84
2022/07/09 12:50:30;;;;;;;1.23;1.20;;;;;;;;;;5053780;28;20237;-85
2022/07/09 12:52:57;;;;;;;1.30;1.20;;;;;;;;;;5053438;28;20674;-85
2022/07/09 12:55:24;;;;;;;1.20;1.10;;;;;;;;;;5054107;28;20210;-85
2022/07/09 12:57:51;;;;;;;1.60;1.50;;;;;;;;;;5053692;28;20202;-85
2022/07/09 13:00:18;;;;;;;1.42;1.30;;;;;;;;;;5053699;28;20237;-84
2022/07/09 13:02:47;;;;;;;1.85;1.40;;;;;;;;;;5053722;28;20205;-85
2022/07/09 13:05:14;;;;;;;1.10;1.10;;;;;;;;;;5052801;28;20295;-85
2022/07/09 13:07:41;;;;;;;1.85;1.10;;;;;;;;;;5053661;28;20296;-85
2022/07/09 13:10:09;;;;;;;1.10;1.00;;;;;;;;;;5053015;28;20245;-84
2022/07/09 13:12:36;;;;;;;0.93;0.93;;;;;;;;;;5053565;28;20206;-84
2022/07/09 13:15:03;;;;;;;1.92;1.33;;;;;;;;;;5052863;28;20253;-84
2022/07/09 13:17:30;;;;;;;1.42;1.13;;;;;;;;;;5053741;28;20206;-85
2022/07/09 13:19:58;;;;;;;1.70;1.10;;;;;;;;;;5053045;28;20645;-84
2022/07/09 13:22:26;;;;;;;1.30;1.20;;;;;;;;;;5053882;28;20210;-83
2022/07/09 13:24:53;;;;;;;1.30;1.20;;;;;;;;;;5053867;28;20242;-84
2022/07/09 13:27:20;;;;;;;1.33;1.20;;;;;;;;;;5054311;28;20226;-82
2022/07/09 13:29:48;;;;;;;1.40;1.30;;;;;;;;;;5053355;28;20248;-81
2022/07/09 13:32:15;;;;;;;2.20;1.10;;;;;;;;;;5054049;28;20210;-81
2022/07/09 13:34:42;;;;;;;1.17;1.08;;;;;;;;;;5053570;28;20237;-81
2022/07/09 13:37:10;;;;;;;2.40;1.30;;;;;;;;;;5054901;28;20594;-82
2022/07/09 13:39:37;;;;;;;2.03;1.30;;;;;;;;;;5054576;28;20238;-82
2022/07/09 13:42:04;;;;;;;0.93;0.90;;;;;;;;;;5056037;28;20739;-84
2022/07/09 13:44:32;;;;;;;1.88;0.80;;;;;;;;;;5053950;28;20287;-81
2022/07/09 13:46:59;;;;;;;3.83;0.80;;;;;;;;;;5053935;28;20244;-80
2022/07/09 13:49:26;;;;;;;1.13;1.02;;;;;;;;;;5053811;28;20241;-81
2022/07/09 13:51:53;;;;;;;0.80;0.80;;;;;;;;;;5053507;28;20205;-81
2022/07/09 13:54:22;;;;;;;1.40;1.05;;;;;;;;;;5052935;28;20706;-86
2022/07/09 13:56:49;;;;;;;1.30;0.90;;;;;;;;;;5054178;28;20205;-85
2022/07/09 13:59:16;;;;;;;1.20;1.10;;;;;;;;;;5052195;28;20249;-80
2022/07/09 14:01:43;;;;;;;1.88;1.20;;;;;;;;;;5053932;28;20206;-84
2022/07/09 14:04:10;;;;;;;2.60;1.10;;;;;;;;;;5052675;28;20230;-82
2022/07/09 14:06:37;;;;;;;1.20;1.00;;;;;;;;;;5053440;28;20206;-83
2022/07/09 14:09:05;;;;;;;1.35;1.00;;;;;;;;;;5053991;28;20233;-82
2022/07/09 14:11:33;;;;;;;1.00;1.00;;;;;;;;;;5053625;28;20261;-83
2022/07/09 14:14:01;;;;;;;1.55;1.10;;;;;;;;;;5052920;28;20238;-83
2022/07/09 14:16:28;;;;;;;2.08;1.00;;;;;;;;;;5054759;28;20245;-84
2022/07/09 14:18:55;;;;;;;1.75;1.02;;;;;;;;;;5054369;28;20281;-86
2022/07/09 14:21:22;;;;;;;1.30;1.20;;;;;;;;;;5053917;28;20225;-82
2022/07/09 14:23:49;;;;;;;1.58;1.05;;;;;;;;;;5053554;28;20238;-82
2022/07/09 14:26:16;;;;;;;2.53;1.00;;;;;;;;;;5053174;28;20213;-83
2022/07/09 14:28:45;;;;;;;0.80;0.80;;;;;;;;;;5052998;28;20241;-84
2022/07/09 14:31:12;;;;;;;0.73;0.73;;;;;;;;;;5053900;28;20289;-80
2022/07/09 14:33:39;;;;;;;0.95;0.90;;;;;;;;;;5054714;28;20225;-84
2022/07/09 14:36:07;;;;;;;1.10;0.93;;;;;;;;;;5061645;28;20209;-84
2022/07/09 14:38:34;;;;;;;2.17;1.20;;;;;;;;;;5069734;28;20234;-83
2022/07/09 14:41:01;;;;;;;0.90;0.90;;;;;;;;;;5070657;28;20213;-82
2022/07/09 14:43:28;;;;;;;1.90;1.50;;;;;;;;;;5070436;28;20234;-83
2022/07/09 14:45:56;;;;;;;0.70;0.70;;;;;;;;;;5070384;28;20670;-82
2022/07/09 14:48:23;;;;;;;1.20;1.10;;;;;;;;;;5068694;28;20241;-82